sensor_id;sensor_type;location;lat;lon;timestamp;P1;durP1;ratioP1;P2;durP2;ratioP2
6037;SDS011;3047;42.600;23.470;2022-07-23T00:00:22;6.05;;;4.45;;
6037;SDS011;3047;42.600;23.470;2022-07-23T00:02:48;5.00;;;4.50;;
6037;SDS011;3047;42.600;23.470;2022-07-23T00:05:15;4.55;;;4.20;;
6037;SDS011;3047;42.600;23.470;2022-07-23T00:07:42;6.78;;;4.32;;
6037;SDS011;3047;42.600;23.470;2022-07-23T00:10:10;5.70;;;4.28;;
6037;SDS011;3047;42.600;23.470;2022-07-23T00:12:37;7.07;;;4.90;;
6037;SDS011;3047;42.600;23.470;2022-07-23T00:15:05;5.03;;;3.80;;
6037;SDS011;3047;42.600;23.470;2022-07-23T00:17:34;5.70;;;4.28;;
6037;SDS011;3047;42.600;23.470;2022-07-23T00:20:00;5.60;;;4.35;;
6037;SDS011;3047;42.600;23.470;2022-07-23T00:22:27;6.13;;;4.80;;
6037;SDS011;3047;42.600;23.470;2022-07-23T00:24:54;6.10;;;3.95;;
6037;SDS011;3047;42.600;23.470;2022-07-23T00:27:22;5.45;;;4.82;;
6037;SDS011;3047;42.600;23.470;2022-07-23T00:29:49;7.03;;;4.30;;
6037;SDS011;3047;42.600;23.470;2022-07-23T00:32:16;9.75;;;5.53;;
6037;SDS011;3047;42.600;23.470;2022-07-23T00:34:43;4.80;;;4.40;;
6037;SDS011;3047;42.600;23.470;2022-07-23T00:37:09;5.43;;;4.78;;
6037;SDS011;3047;42.600;23.470;2022-07-23T00:39:36;4.95;;;4.32;;
6037;SDS011;3047;42.600;23.470;2022-07-23T00:42:03;5.93;;;3.95;;
6037;SDS011;3047;42.600;23.470;2022-07-23T00:44:31;6.53;;;4.38;;
6037;SDS011;3047;42.600;23.470;2022-07-23T00:46:58;10.40;;;4.65;;
6037;SDS011;3047;42.600;23.470;2022-07-23T00:49:25;4.47;;;4.07;;
6037;SDS011;3047;42.600;23.470;2022-07-23T00:51:53;6.80;;;4.60;;
6037;SDS011;3047;42.600;23.470;2022-07-23T00:54:22;5.53;;;4.45;;
6037;SDS011;3047;42.600;23.470;2022-07-23T00:56:49;4.82;;;3.70;;
6037;SDS011;3047;42.600;23.470;2022-07-23T00:59:17;7.38;;;4.85;;
6037;SDS011;3047;42.600;23.470;2022-07-23T01:01:45;5.55;;;4.20;;
6037;SDS011;3047;42.600;23.470;2022-07-23T01:04:14;5.40;;;5.00;;
6037;SDS011;3047;42.600;23.470;2022-07-23T01:06:41;4.38;;;3.95;;
6037;SDS011;3047;42.600;23.470;2022-07-23T01:09:10;8.07;;;4.63;;
6037;SDS011;3047;42.600;23.470;2022-07-23T01:11:37;8.30;;;4.47;;
6037;SDS011;3047;42.600;23.470;2022-07-23T01:14:08;6.75;;;4.15;;
6037;SDS011;3047;42.600;23.470;2022-07-23T01:16:36;5.15;;;4.50;;
6037;SDS011;3047;42.600;23.470;2022-07-23T01:19:04;5.30;;;4.60;;
6037;SDS011;3047;42.600;23.470;2022-07-23T01:21:32;7.88;;;4.40;;
6037;SDS011;3047;42.600;23.470;2022-07-23T01:24:03;4.60;;;4.13;;
6037;SDS011;3047;42.600;23.470;2022-07-23T01:26:31;5.45;;;4.75;;
6037;SDS011;3047;42.600;23.470;2022-07-23T01:28:57;5.05;;;4.22;;
6037;SDS011;3047;42.600;23.470;2022-07-23T01:31:24;8.00;;;4.40;;
6037;SDS011;3047;42.600;23.470;2022-07-23T01:33:51;4.07;;;3.78;;
6037;SDS011;3047;42.600;23.470;2022-07-23T01:36:18;7.13;;;4.18;;
6037;SDS011;3047;42.600;23.470;2022-07-23T01:38:45;4.38;;;3.92;;
6037;SDS011;3047;42.600;23.470;2022-07-23T01:41:13;5.63;;;3.70;;
6037;SDS011;3047;42.600;23.470;2022-07-23T01:43:40;5.28;;;4.05;;
6037;SDS011;3047;42.600;23.470;2022-07-23T01:46:07;4.32;;;3.92;;
6037;SDS011;3047;42.600;23.470;2022-07-23T01:48:33;8.57;;;4.60;;
6037;SDS011;3047;42.600;23.470;2022-07-23T01:51:00;6.05;;;4.47;;
6037;SDS011;3047;42.600;23.470;2022-07-23T01:53:27;6.60;;;4.20;;
6037;SDS011;3047;42.600;23.470;2022-07-23T01:55:56;7.68;;;4.38;;
6037;SDS011;3047;42.600;23.470;2022-07-23T01:58:24;5.18;;;4.30;;
6037;SDS011;3047;42.600;23.470;2022-07-23T02:00:51;6.60;;;3.85;;
6037;SDS011;3047;42.600;23.470;2022-07-23T02:03:17;4.80;;;4.22;;
6037;SDS011;3047;42.600;23.470;2022-07-23T02:05:44;7.57;;;4.05;;
6037;SDS011;3047;42.600;23.470;2022-07-23T02:08:11;6.05;;;4.22;;
6037;SDS011;3047;42.600;23.470;2022-07-23T02:10:38;5.80;;;3.95;;
6037;SDS011;3047;42.600;23.470;2022-07-23T02:13:04;7.85;;;4.38;;
6037;SDS011;3047;42.600;23.470;2022-07-23T02:15:32;5.93;;;3.90;;
6037;SDS011;3047;42.600;23.470;2022-07-23T02:17:59;5.43;;;4.13;;
6037;SDS011;3047;42.600;23.470;2022-07-23T02:20:26;7.45;;;4.28;;
6037;SDS011;3047;42.600;23.470;2022-07-23T02:22:53;4.50;;;4.10;;
6037;SDS011;3047;42.600;23.470;2022-07-23T02:25:20;5.53;;;4.22;;
6037;SDS011;3047;42.600;23.470;2022-07-23T02:27:46;5.72;;;4.60;;
6037;SDS011;3047;42.600;23.470;2022-07-23T02:30:13;5.22;;;4.15;;
6037;SDS011;3047;42.600;23.470;2022-07-23T02:32:41;7.47;;;4.90;;
6037;SDS011;3047;42.600;23.470;2022-07-23T02:35:08;8.02;;;4.28;;
6037;SDS011;3047;42.600;23.470;2022-07-23T02:37:35;4.95;;;4.13;;
6037;SDS011;3047;42.600;23.470;2022-07-23T02:40:02;4.38;;;3.90;;
6037;SDS011;3047;42.600;23.470;2022-07-23T02:42:29;6.82;;;4.30;;
6037;SDS011;3047;42.600;23.470;2022-07-23T02:44:55;4.50;;;4.05;;
6037;SDS011;3047;42.600;23.470;2022-07-23T02:47:22;5.05;;;4.40;;
6037;SDS011;3047;42.600;23.470;2022-07-23T02:49:50;5.25;;;4.22;;
6037;SDS011;3047;42.600;23.470;2022-07-23T02:52:17;5.40;;;4.15;;
6037;SDS011;3047;42.600;23.470;2022-07-23T02:54:44;5.22;;;3.95;;
6037;SDS011;3047;42.600;23.470;2022-07-23T02:57:10;4.57;;;4.25;;
6037;SDS011;3047;42.600;23.470;2022-07-23T02:59:37;7.70;;;4.25;;
6037;SDS011;3047;42.600;23.470;2022-07-23T03:02:04;6.68;;;3.97;;
6037;SDS011;3047;42.600;23.470;2022-07-23T03:04:30;6.88;;;4.35;;
6037;SDS011;3047;42.600;23.470;2022-07-23T03:06:58;4.90;;;4.25;;
6037;SDS011;3047;42.600;23.470;2022-07-23T03:09:25;5.80;;;3.90;;
6037;SDS011;3047;42.600;23.470;2022-07-23T03:11:52;8.07;;;4.35;;
6037;SDS011;3047;42.600;23.470;2022-07-23T03:14:18;9.30;;;4.50;;
6037;SDS011;3047;42.600;23.470;2022-07-23T03:16:45;6.43;;;4.00;;
6037;SDS011;3047;42.600;23.470;2022-07-23T03:19:12;6.78;;;4.38;;
6037;SDS011;3047;42.600;23.470;2022-07-23T03:21:39;4.75;;;4.30;;
6037;SDS011;3047;42.600;23.470;2022-07-23T03:24:08;8.20;;;4.63;;
6037;SDS011;3047;42.600;23.470;2022-07-23T03:26:35;7.70;;;4.97;;
6037;SDS011;3047;42.600;23.470;2022-07-23T03:29:02;6.68;;;4.75;;
6037;SDS011;3047;42.600;23.470;2022-07-23T03:31:31;5.47;;;5.07;;
6037;SDS011;3047;42.600;23.470;2022-07-23T03:33:58;8.50;;;4.20;;
6037;SDS011;3047;42.600;23.470;2022-07-23T03:36:25;9.63;;;4.40;;
6037;SDS011;3047;42.600;23.470;2022-07-23T03:38:52;5.15;;;4.45;;
6037;SDS011;3047;42.600;23.470;2022-07-23T03:41:20;6.35;;;4.20;;
6037;SDS011;3047;42.600;23.470;2022-07-23T03:43:47;5.55;;;4.25;;
6037;SDS011;3047;42.600;23.470;2022-07-23T03:46:14;5.80;;;3.85;;
6037;SDS011;3047;42.600;23.470;2022-07-23T03:48:40;5.60;;;4.65;;
6037;SDS011;3047;42.600;23.470;2022-07-23T03:51:07;5.13;;;4.65;;
6037;SDS011;3047;42.600;23.470;2022-07-23T03:53:34;5.93;;;4.55;;
6037;SDS011;3047;42.600;23.470;2022-07-23T03:56:01;6.47;;;4.57;;
6037;SDS011;3047;42.600;23.470;2022-07-23T03:58:29;5.95;;;4.38;;
6037;SDS011;3047;42.600;23.470;2022-07-23T04:00:55;4.50;;;4.15;;
6037;SDS011;3047;42.600;23.470;2022-07-23T04:03:22;5.55;;;4.25;;
6037;SDS011;3047;42.600;23.470;2022-07-23T04:05:49;5.72;;;5.10;;
6037;SDS011;3047;42.600;23.470;2022-07-23T04:08:16;5.45;;;4.55;;
6037;SDS011;3047;42.600;23.470;2022-07-23T04:10:42;5.28;;;4.78;;
6037;SDS011;3047;42.600;23.470;2022-07-23T04:13:09;9.52;;;5.32;;
6037;SDS011;3047;42.600;23.470;2022-07-23T04:15:37;6.72;;;5.80;;
6037;SDS011;3047;42.600;23.470;2022-07-23T04:18:04;5.70;;;5.10;;
6037;SDS011;3047;42.600;23.470;2022-07-23T04:20:31;9.52;;;6.68;;
6037;SDS011;3047;42.600;23.470;2022-07-23T04:22:57;14.63;;;6.82;;
6037;SDS011;3047;42.600;23.470;2022-07-23T04:25:24;17.58;;;7.45;;
6037;SDS011;3047;42.600;23.470;2022-07-23T04:27:51;65.90;;;11.70;;
6037;SDS011;3047;42.600;23.470;2022-07-23T04:30:18;13.10;;;6.32;;
6037;SDS011;3047;42.600;23.470;2022-07-23T04:32:46;13.73;;;6.43;;
6037;SDS011;3047;42.600;23.470;2022-07-23T04:35:12;11.43;;;5.35;;
6037;SDS011;3047;42.600;23.470;2022-07-23T04:37:39;8.32;;;6.28;;
6037;SDS011;3047;42.600;23.470;2022-07-23T04:40:06;12.77;;;5.63;;
6037;SDS011;3047;42.600;23.470;2022-07-23T04:42:33;8.77;;;6.03;;
6037;SDS011;3047;42.600;23.470;2022-07-23T04:45:00;8.05;;;5.60;;
6037;SDS011;3047;42.600;23.470;2022-07-23T04:47:28;8.75;;;5.72;;
6037;SDS011;3047;42.600;23.470;2022-07-23T04:49:57;12.40;;;6.40;;
6037;SDS011;3047;42.600;23.470;2022-07-23T04:52:24;8.60;;;6.43;;
6037;SDS011;3047;42.600;23.470;2022-07-23T04:54:50;8.63;;;5.97;;
6037;SDS011;3047;42.600;23.470;2022-07-23T04:57:17;11.25;;;5.93;;
6037;SDS011;3047;42.600;23.470;2022-07-23T04:59:44;9.75;;;5.63;;
6037;SDS011;3047;42.600;23.470;2022-07-23T05:02:11;10.07;;;6.47;;
6037;SDS011;3047;42.600;23.470;2022-07-23T05:04:38;11.73;;;5.75;;
6037;SDS011;3047;42.600;23.470;2022-07-23T05:07:06;9.60;;;6.03;;
6037;SDS011;3047;42.600;23.470;2022-07-23T05:09:33;10.02;;;6.85;;
6037;SDS011;3047;42.600;23.470;2022-07-23T05:11:59;10.13;;;5.95;;
6037;SDS011;3047;42.600;23.470;2022-07-23T05:14:26;11.63;;;6.10;;
6037;SDS011;3047;42.600;23.470;2022-07-23T05:16:53;7.28;;;4.82;;
6037;SDS011;3047;42.600;23.470;2022-07-23T05:19:20;13.90;;;5.13;;
6037;SDS011;3047;42.600;23.470;2022-07-23T05:21:47;9.13;;;5.85;;
6037;SDS011;3047;42.600;23.470;2022-07-23T05:24:16;6.00;;;5.40;;
6037;SDS011;3047;42.600;23.470;2022-07-23T05:26:42;10.07;;;5.07;;
6037;SDS011;3047;42.600;23.470;2022-07-23T05:29:09;9.18;;;5.45;;
6037;SDS011;3047;42.600;23.470;2022-07-23T05:31:36;7.55;;;5.40;;
6037;SDS011;3047;42.600;23.470;2022-07-23T05:34:03;9.18;;;6.72;;
6037;SDS011;3047;42.600;23.470;2022-07-23T05:36:30;11.82;;;6.10;;
6037;SDS011;3047;42.600;23.470;2022-07-23T05:38:58;7.60;;;6.10;;
6037;SDS011;3047;42.600;23.470;2022-07-23T05:41:26;6.45;;;5.82;;
6037;SDS011;3047;42.600;23.470;2022-07-23T05:43:52;8.43;;;5.60;;
6037;SDS011;3047;42.600;23.470;2022-07-23T05:46:19;7.43;;;5.55;;
6037;SDS011;3047;42.600;23.470;2022-07-23T05:48:46;9.35;;;6.72;;
6037;SDS011;3047;42.600;23.470;2022-07-23T05:51:18;6.07;;;5.32;;
6037;SDS011;3047;42.600;23.470;2022-07-23T05:53:46;9.85;;;6.10;;
6037;SDS011;3047;42.600;23.470;2022-07-23T05:56:13;11.65;;;5.78;;
6037;SDS011;3047;42.600;23.470;2022-07-23T05:58:41;10.18;;;5.30;;
6037;SDS011;3047;42.600;23.470;2022-07-23T06:01:08;10.13;;;5.50;;
6037;SDS011;3047;42.600;23.470;2022-07-23T06:03:36;8.80;;;5.00;;
6037;SDS011;3047;42.600;23.470;2022-07-23T06:06:04;9.95;;;5.47;;
6037;SDS011;3047;42.600;23.470;2022-07-23T06:08:31;8.65;;;5.82;;
6037;SDS011;3047;42.600;23.470;2022-07-23T06:11:01;9.40;;;5.28;;
6037;SDS011;3047;42.600;23.470;2022-07-23T06:13:28;6.88;;;5.70;;
6037;SDS011;3047;42.600;23.470;2022-07-23T06:15:56;12.18;;;5.47;;
6037;SDS011;3047;42.600;23.470;2022-07-23T06:18:22;9.68;;;5.88;;
6037;SDS011;3047;42.600;23.470;2022-07-23T06:20:49;7.38;;;5.63;;
6037;SDS011;3047;42.600;23.470;2022-07-23T06:23:16;9.80;;;6.00;;
6037;SDS011;3047;42.600;23.470;2022-07-23T06:25:43;11.55;;;5.50;;
6037;SDS011;3047;42.600;23.470;2022-07-23T06:28:12;10.88;;;5.63;;
6037;SDS011;3047;42.600;23.470;2022-07-23T06:30:40;7.82;;;5.63;;
6037;SDS011;3047;42.600;23.470;2022-07-23T06:33:09;10.27;;;5.65;;
6037;SDS011;3047;42.600;23.470;2022-07-23T06:35:41;8.23;;;5.53;;
6037;SDS011;3047;42.600;23.470;2022-07-23T06:38:09;14.10;;;7.28;;
6037;SDS011;3047;42.600;23.470;2022-07-23T06:40:35;9.43;;;6.47;;
6037;SDS011;3047;42.600;23.470;2022-07-23T06:43:02;13.07;;;5.75;;
6037;SDS011;3047;42.600;23.470;2022-07-23T06:45:29;10.57;;;5.47;;
6037;SDS011;3047;42.600;23.470;2022-07-23T06:47:56;6.57;;;5.72;;
6037;SDS011;3047;42.600;23.470;2022-07-23T06:50:24;9.85;;;6.15;;
6037;SDS011;3047;42.600;23.470;2022-07-23T06:52:51;5.70;;;5.00;;
6037;SDS011;3047;42.600;23.470;2022-07-23T06:55:18;9.63;;;6.45;;
6037;SDS011;3047;42.600;23.470;2022-07-23T06:57:44;10.02;;;5.68;;
6037;SDS011;3047;42.600;23.470;2022-07-23T07:00:11;11.38;;;6.45;;
6037;SDS011;3047;42.600;23.470;2022-07-23T07:02:38;9.32;;;6.07;;
6037;SDS011;3047;42.600;23.470;2022-07-23T07:05:05;20.92;;;6.07;;
6037;SDS011;3047;42.600;23.470;2022-07-23T07:07:34;8.38;;;6.00;;
6037;SDS011;3047;42.600;23.470;2022-07-23T07:10:01;10.02;;;6.32;;
6037;SDS011;3047;42.600;23.470;2022-07-23T07:12:28;9.40;;;6.30;;
6037;SDS011;3047;42.600;23.470;2022-07-23T07:14:54;11.57;;;6.00;;
6037;SDS011;3047;42.600;23.470;2022-07-23T07:17:21;6.38;;;5.72;;
6037;SDS011;3047;42.600;23.470;2022-07-23T07:19:48;8.02;;;6.45;;
6037;SDS011;3047;42.600;23.470;2022-07-23T07:22:15;7.93;;;6.20;;
6037;SDS011;3047;42.600;23.470;2022-07-23T07:24:43;6.20;;;5.60;;
6037;SDS011;3047;42.600;23.470;2022-07-23T07:27:10;8.18;;;6.13;;
6037;SDS011;3047;42.600;23.470;2022-07-23T07:29:36;9.00;;;6.40;;
6037;SDS011;3047;42.600;23.470;2022-07-23T07:32:04;13.88;;;6.20;;
6037;SDS011;3047;42.600;23.470;2022-07-23T07:34:31;10.27;;;6.43;;
6037;SDS011;3047;42.600;23.470;2022-07-23T07:36:57;10.35;;;6.47;;
6037;SDS011;3047;42.600;23.470;2022-07-23T07:39:24;14.48;;;5.97;;
6037;SDS011;3047;42.600;23.470;2022-07-23T07:41:52;8.82;;;7.00;;
6037;SDS011;3047;42.600;23.470;2022-07-23T07:44:19;9.13;;;5.60;;
6037;SDS011;3047;42.600;23.470;2022-07-23T07:46:46;9.35;;;5.90;;
6037;SDS011;3047;42.600;23.470;2022-07-23T07:49:12;10.38;;;5.68;;
6037;SDS011;3047;42.600;23.470;2022-07-23T07:51:39;7.65;;;5.60;;
6037;SDS011;3047;42.600;23.470;2022-07-23T07:54:06;6.45;;;5.30;;
6037;SDS011;3047;42.600;23.470;2022-07-23T07:56:32;8.38;;;5.47;;
6037;SDS011;3047;42.600;23.470;2022-07-23T07:59:01;7.03;;;5.28;;
6037;SDS011;3047;42.600;23.470;2022-07-23T08:01:27;10.60;;;6.00;;
6037;SDS011;3047;42.600;23.470;2022-07-23T08:03:54;9.75;;;5.53;;
6037;SDS011;3047;42.600;23.470;2022-07-23T08:06:21;6.18;;;5.60;;
6037;SDS011;3047;42.600;23.470;2022-07-23T08:08:47;7.40;;;5.22;;
6037;SDS011;3047;42.600;23.470;2022-07-23T08:11:15;8.77;;;4.85;;
6037;SDS011;3047;42.600;23.470;2022-07-23T08:13:41;10.18;;;4.97;;
6037;SDS011;3047;42.600;23.470;2022-07-23T08:16:11;6.40;;;5.03;;
6037;SDS011;3047;42.600;23.470;2022-07-23T08:18:38;9.23;;;5.70;;
6037;SDS011;3047;42.600;23.470;2022-07-23T08:21:04;7.63;;;5.57;;
6037;SDS011;3047;42.600;23.470;2022-07-23T08:23:31;11.73;;;5.43;;
6037;SDS011;3047;42.600;23.470;2022-07-23T08:25:58;10.50;;;5.72;;
6037;SDS011;3047;42.600;23.470;2022-07-23T08:28:26;6.65;;;5.38;;
6037;SDS011;3047;42.600;23.470;2022-07-23T08:30:52;6.93;;;5.97;;
6037;SDS011;3047;42.600;23.470;2022-07-23T08:33:20;12.02;;;5.68;;
6037;SDS011;3047;42.600;23.470;2022-07-23T08:35:48;7.53;;;5.35;;
6037;SDS011;3047;42.600;23.470;2022-07-23T08:38:16;11.55;;;5.53;;
6037;SDS011;3047;42.600;23.470;2022-07-23T08:40:44;10.02;;;5.72;;
6037;SDS011;3047;42.600;23.470;2022-07-23T08:43:14;5.20;;;4.78;;
6037;SDS011;3047;42.600;23.470;2022-07-23T08:45:43;9.43;;;6.03;;
6037;SDS011;3047;42.600;23.470;2022-07-23T08:48:12;8.05;;;5.40;;
6037;SDS011;3047;42.600;23.470;2022-07-23T08:50:44;8.43;;;5.53;;
6037;SDS011;3047;42.600;23.470;2022-07-23T08:53:12;13.43;;;6.45;;
6037;SDS011;3047;42.600;23.470;2022-07-23T08:55:39;14.45;;;6.00;;
6037;SDS011;3047;42.600;23.470;2022-07-23T08:58:06;7.53;;;5.20;;
6037;SDS011;3047;42.600;23.470;2022-07-23T09:00:33;8.20;;;5.80;;
6037;SDS011;3047;42.600;23.470;2022-07-23T09:02:59;7.80;;;5.28;;
6037;SDS011;3047;42.600;23.470;2022-07-23T09:05:26;7.13;;;5.20;;
6037;SDS011;3047;42.600;23.470;2022-07-23T09:08:08;11.82;;;5.35;;
6037;SDS011;3047;42.600;23.470;2022-07-23T09:10:49;6.57;;;5.15;;
6037;SDS011;3047;42.600;23.470;2022-07-23T09:13:26;6.18;;;5.57;;
6037;SDS011;3047;42.600;23.470;2022-07-23T09:15:56;7.28;;;5.65;;
6037;SDS011;3047;42.600;23.470;2022-07-23T09:21:16;9.85;;;5.68;;
6037;SDS011;3047;42.600;23.470;2022-07-23T09:23:50;6.78;;;4.97;;
6037;SDS011;3047;42.600;23.470;2022-07-23T09:26:20;11.15;;;5.97;;
6037;SDS011;3047;42.600;23.470;2022-07-23T09:28:59;8.18;;;5.40;;
6037;SDS011;3047;42.600;23.470;2022-07-23T09:31:34;6.55;;;5.25;;
6037;SDS011;3047;42.600;23.470;2022-07-23T09:34:12;9.70;;;5.00;;
6037;SDS011;3047;42.600;23.470;2022-07-23T09:36:41;8.23;;;4.75;;
6037;SDS011;3047;42.600;23.470;2022-07-23T09:39:10;10.32;;;5.50;;
6037;SDS011;3047;42.600;23.470;2022-07-23T09:41:39;7.90;;;5.43;;
6037;SDS011;3047;42.600;23.470;2022-07-23T09:44:11;11.70;;;6.10;;
6037;SDS011;3047;42.600;23.470;2022-07-23T09:46:41;6.20;;;4.80;;
6037;SDS011;3047;42.600;23.470;2022-07-23T09:49:13;7.28;;;5.13;;
6037;SDS011;3047;42.600;23.470;2022-07-23T09:51:45;13.02;;;6.03;;
6037;SDS011;3047;42.600;23.470;2022-07-23T09:54:22;6.68;;;4.82;;
6037;SDS011;3047;42.600;23.470;2022-07-23T09:56:59;10.23;;;5.45;;
6037;SDS011;3047;42.600;23.470;2022-07-23T09:59:28;8.27;;;5.30;;
6037;SDS011;3047;42.600;23.470;2022-07-23T10:01:56;9.70;;;5.45;;
6037;SDS011;3047;42.600;23.470;2022-07-23T10:04:25;8.95;;;6.32;;
6037;SDS011;3047;42.600;23.470;2022-07-23T10:06:54;8.70;;;5.63;;
6037;SDS011;3047;42.600;23.470;2022-07-23T10:09:24;12.10;;;5.63;;
6037;SDS011;3047;42.600;23.470;2022-07-23T10:11:57;5.20;;;4.70;;
6037;SDS011;3047;42.600;23.470;2022-07-23T10:14:39;6.93;;;4.65;;
6037;SDS011;3047;42.600;23.470;2022-07-23T10:17:06;10.27;;;5.85;;
6037;SDS011;3047;42.600;23.470;2022-07-23T10:19:33;8.65;;;5.85;;
6037;SDS011;3047;42.600;23.470;2022-07-23T10:22:02;6.43;;;4.93;;
6037;SDS011;3047;42.600;23.470;2022-07-23T10:24:40;8.32;;;5.35;;
6037;SDS011;3047;42.600;23.470;2022-07-23T10:27:25;7.55;;;5.60;;
6037;SDS011;3047;42.600;23.470;2022-07-23T10:30:07;8.48;;;5.30;;
6037;SDS011;3047;42.600;23.470;2022-07-23T10:32:40;8.68;;;5.75;;
6037;SDS011;3047;42.600;23.470;2022-07-23T10:35:19;10.88;;;5.38;;
6037;SDS011;3047;42.600;23.470;2022-07-23T10:37:52;6.72;;;5.70;;
6037;SDS011;3047;42.600;23.470;2022-07-23T10:40:24;10.77;;;5.43;;
6037;SDS011;3047;42.600;23.470;2022-07-23T10:42:51;7.07;;;5.50;;
6037;SDS011;3047;42.600;23.470;2022-07-23T10:45:28;9.00;;;5.03;;
6037;SDS011;3047;42.600;23.470;2022-07-23T10:48:11;7.75;;;5.88;;
6037;SDS011;3047;42.600;23.470;2022-07-23T10:50:40;10.98;;;5.80;;
6037;SDS011;3047;42.600;23.470;2022-07-23T10:53:08;17.20;;;5.97;;
6037;SDS011;3047;42.600;23.470;2022-07-23T10:55:46;10.13;;;5.68;;
6037;SDS011;3047;42.600;23.470;2022-07-23T10:58:19;8.50;;;5.55;;
6037;SDS011;3047;42.600;23.470;2022-07-23T11:00:47;6.53;;;5.55;;
6037;SDS011;3047;42.600;23.470;2022-07-23T11:03:28;8.07;;;5.72;;
6037;SDS011;3047;42.600;23.470;2022-07-23T11:05:58;8.35;;;4.57;;
6037;SDS011;3047;42.600;23.470;2022-07-23T11:08:25;11.35;;;5.57;;
6037;SDS011;3047;42.600;23.470;2022-07-23T11:10:54;9.15;;;5.70;;
6037;SDS011;3047;42.600;23.470;2022-07-23T11:13:40;14.65;;;5.57;;
6037;SDS011;3047;42.600;23.470;2022-07-23T11:16:12;9.43;;;5.53;;
6037;SDS011;3047;42.600;23.470;2022-07-23T11:18:53;12.00;;;5.28;;
6037;SDS011;3047;42.600;23.470;2022-07-23T11:24:16;13.73;;;4.65;;
6037;SDS011;3047;42.600;23.470;2022-07-23T11:26:54;9.13;;;4.72;;
6037;SDS011;3047;42.600;23.470;2022-07-23T11:29:42;12.65;;;5.07;;
6037;SDS011;3047;42.600;23.470;2022-07-23T11:32:18;9.68;;;5.07;;
6037;SDS011;3047;42.600;23.470;2022-07-23T11:34:48;10.38;;;4.45;;
6037;SDS011;3047;42.600;23.470;2022-07-23T11:37:26;14.43;;;6.47;;
6037;SDS011;3047;42.600;23.470;2022-07-23T11:39:55;9.75;;;5.32;;
6037;SDS011;3047;42.600;23.470;2022-07-23T11:42:24;10.68;;;5.53;;
6037;SDS011;3047;42.600;23.470;2022-07-23T11:44:50;10.55;;;5.50;;
6037;SDS011;3047;42.600;23.470;2022-07-23T11:47:21;10.93;;;4.95;;
6037;SDS011;3047;42.600;23.470;2022-07-23T11:49:52;9.70;;;5.28;;
6037;SDS011;3047;42.600;23.470;2022-07-23T11:52:20;11.13;;;6.05;;
6037;SDS011;3047;42.600;23.470;2022-07-23T11:54:48;12.57;;;5.32;;
6037;SDS011;3047;42.600;23.470;2022-07-23T11:57:17;11.95;;;5.63;;
6037;SDS011;3047;42.600;23.470;2022-07-23T11:59:47;15.38;;;5.63;;
6037;SDS011;3047;42.600;23.470;2022-07-23T12:02:19;8.95;;;6.25;;
6037;SDS011;3047;42.600;23.470;2022-07-23T12:04:48;9.43;;;5.18;;
6037;SDS011;3047;42.600;23.470;2022-07-23T12:07:30;9.60;;;4.90;;
6037;SDS011;3047;42.600;23.470;2022-07-23T12:09:59;11.95;;;5.70;;
6037;SDS011;3047;42.600;23.470;2022-07-23T12:12:27;11.00;;;5.30;;
6037;SDS011;3047;42.600;23.470;2022-07-23T12:15:03;12.05;;;5.00;;
6037;SDS011;3047;42.600;23.470;2022-07-23T12:17:31;13.38;;;5.57;;
6037;SDS011;3047;42.600;23.470;2022-07-23T12:20:00;10.45;;;5.53;;
6037;SDS011;3047;42.600;23.470;2022-07-23T12:22:33;12.95;;;5.78;;
6037;SDS011;3047;42.600;23.470;2022-07-23T12:25:03;12.27;;;5.25;;
6037;SDS011;3047;42.600;23.470;2022-07-23T12:27:32;13.80;;;4.97;;
6037;SDS011;3047;42.600;23.470;2022-07-23T12:32:56;13.68;;;5.57;;
6037;SDS011;3047;42.600;23.470;2022-07-23T12:35:29;12.35;;;4.88;;
6037;SDS011;3047;42.600;23.470;2022-07-23T12:37:59;12.38;;;4.85;;
6037;SDS011;3047;42.600;23.470;2022-07-23T12:40:28;12.25;;;5.32;;
6037;SDS011;3047;42.600;23.470;2022-07-23T12:42:57;9.32;;;4.47;;
6037;SDS011;3047;42.600;23.470;2022-07-23T12:45:25;10.95;;;5.03;;
6037;SDS011;3047;42.600;23.470;2022-07-23T12:47:58;10.38;;;5.00;;
6037;SDS011;3047;42.600;23.470;2022-07-23T12:50:32;16.60;;;5.53;;
6037;SDS011;3047;42.600;23.470;2022-07-23T12:53:07;15.95;;;4.97;;
6037;SDS011;3047;42.600;23.470;2022-07-23T12:55:36;10.93;;;4.95;;
6037;SDS011;3047;42.600;23.470;2022-07-23T12:58:05;10.00;;;4.78;;
6037;SDS011;3047;42.600;23.470;2022-07-23T13:03:26;13.30;;;5.55;;
6037;SDS011;3047;42.600;23.470;2022-07-23T13:05:55;10.38;;;4.80;;
6037;SDS011;3047;42.600;23.470;2022-07-23T13:08:22;14.40;;;5.38;;
6037;SDS011;3047;42.600;23.470;2022-07-23T13:10:50;11.35;;;5.53;;
6037;SDS011;3047;42.600;23.470;2022-07-23T13:13:20;8.95;;;4.90;;
6037;SDS011;3047;42.600;23.470;2022-07-23T13:15:47;13.63;;;5.80;;
6037;SDS011;3047;42.600;23.470;2022-07-23T13:18:15;12.27;;;5.40;;
6037;SDS011;3047;42.600;23.470;2022-07-23T13:20:43;11.73;;;5.07;;
6037;SDS011;3047;42.600;23.470;2022-07-23T13:23:10;10.85;;;4.95;;
6037;SDS011;3047;42.600;23.470;2022-07-23T13:25:37;9.15;;;5.00;;
6037;SDS011;3047;42.600;23.470;2022-07-23T13:28:04;11.40;;;5.30;;
6037;SDS011;3047;42.600;23.470;2022-07-23T13:30:31;12.70;;;5.38;;
6037;SDS011;3047;42.600;23.470;2022-07-23T13:32:58;14.27;;;4.65;;
6037;SDS011;3047;42.600;23.470;2022-07-23T13:35:25;11.55;;;5.43;;
6037;SDS011;3047;42.600;23.470;2022-07-23T13:37:53;11.63;;;5.25;;
6037;SDS011;3047;42.600;23.470;2022-07-23T13:40:20;11.18;;;4.63;;
6037;SDS011;3047;42.600;23.470;2022-07-23T13:42:47;7.57;;;5.00;;
6037;SDS011;3047;42.600;23.470;2022-07-23T13:45:14;14.40;;;5.72;;
6037;SDS011;3047;42.600;23.470;2022-07-23T13:47:41;8.93;;;4.80;;
6037;SDS011;3047;42.600;23.470;2022-07-23T13:50:07;12.93;;;5.30;;
6037;SDS011;3047;42.600;23.470;2022-07-23T13:52:34;10.82;;;5.63;;
6037;SDS011;3047;42.600;23.470;2022-07-23T13:55:03;11.50;;;6.28;;
6037;SDS011;3047;42.600;23.470;2022-07-23T13:57:32;13.55;;;6.22;;
6037;SDS011;3047;42.600;23.470;2022-07-23T13:59:59;10.65;;;5.63;;
6037;SDS011;3047;42.600;23.470;2022-07-23T14:02:27;11.38;;;5.70;;
6037;SDS011;3047;42.600;23.470;2022-07-23T14:04:54;11.00;;;4.80;;
6037;SDS011;3047;42.600;23.470;2022-07-23T14:07:22;11.38;;;5.00;;
6037;SDS011;3047;42.600;23.470;2022-07-23T14:09:49;16.30;;;6.50;;
6037;SDS011;3047;42.600;23.470;2022-07-23T14:12:17;8.50;;;5.28;;
6037;SDS011;3047;42.600;23.470;2022-07-23T14:14:43;16.45;;;5.72;;
6037;SDS011;3047;42.600;23.470;2022-07-23T14:17:10;11.23;;;5.60;;
6037;SDS011;3047;42.600;23.470;2022-07-23T14:19:37;12.35;;;5.45;;
6037;SDS011;3047;42.600;23.470;2022-07-23T14:22:04;11.00;;;5.13;;
6037;SDS011;3047;42.600;23.470;2022-07-23T14:24:31;14.45;;;5.40;;
6037;SDS011;3047;42.600;23.470;2022-07-23T14:26:59;9.90;;;5.10;;
6037;SDS011;3047;42.600;23.470;2022-07-23T14:29:28;13.18;;;6.65;;
6037;SDS011;3047;42.600;23.470;2022-07-23T14:31:55;16.83;;;7.70;;
6037;SDS011;3047;42.600;23.470;2022-07-23T14:34:22;8.50;;;5.75;;
6037;SDS011;3047;42.600;23.470;2022-07-23T14:36:48;11.98;;;5.47;;
6037;SDS011;3047;42.600;23.470;2022-07-23T14:39:15;12.48;;;7.00;;
6037;SDS011;3047;42.600;23.470;2022-07-23T14:41:42;10.13;;;5.35;;
6037;SDS011;3047;42.600;23.470;2022-07-23T14:44:09;9.80;;;4.75;;
6037;SDS011;3047;42.600;23.470;2022-07-23T14:46:37;13.52;;;4.63;;
6037;SDS011;3047;42.600;23.470;2022-07-23T14:49:04;9.57;;;5.35;;
6037;SDS011;3047;42.600;23.470;2022-07-23T14:51:31;7.28;;;5.32;;
6037;SDS011;3047;42.600;23.470;2022-07-23T14:53:58;9.35;;;5.90;;
6037;SDS011;3047;42.600;23.470;2022-07-23T14:56:24;13.02;;;5.93;;
6037;SDS011;3047;42.600;23.470;2022-07-23T14:58:51;11.80;;;5.05;;
6037;SDS011;3047;42.600;23.470;2022-07-23T15:01:20;15.38;;;6.85;;
6037;SDS011;3047;42.600;23.470;2022-07-23T15:03:49;15.65;;;5.28;;
6037;SDS011;3047;42.600;23.470;2022-07-23T15:06:16;13.55;;;6.07;;
6037;SDS011;3047;42.600;23.470;2022-07-23T15:08:43;10.45;;;6.03;;
6037;SDS011;3047;42.600;23.470;2022-07-23T15:11:10;8.20;;;6.07;;
6037;SDS011;3047;42.600;23.470;2022-07-23T15:13:37;12.38;;;5.93;;